Steirman, Idaho
Current Conditions -  °F | °C
As of 12:53 AM on Sunday 23 Nov 2014 (Local Time) from KBOI Reporting Station
Clear Clear  
Wind Chill: 28°   Ceiling: Unl
Heat Index: 34°   Visibility: 10mi
Dew Point: 28°   Wind: 7mph
Humidity: 79%   Direction: 310°NW
Pressure: 30.11"   Gusts: NA
Location:  43.8008°N, 115.834°W
Report Text: KBOI 230753Z 31006KT 10SM CLR 01/M02 A3011 RMK AO2 SLP208 T00111022
Loading
Personal Weather Stations






























Interactive Weather Map New forecast layout! Learn more

10-Day Weather Forecast

Advertisements
Track Severe Weather on mobile